Time;durP1;ratioP1;P1;durP2;ratioP2;P2;SDS_P1;SDS_P2;PMS_P1;PMS_P2;Temp;Humidity;BMP_temperature;BMP_pressure;BME280_temperature;BME280_humidity;BME280_pressure;Samples;Min_cycle;Max_cycle;Signal;HPM_P1;HPM_P2
2021/05/24 00:01:45;;;;;;;12.30;3.62;;;;;;;14.85;64.15;100233.51;1738083;82;21194;-79
2021/05/24 00:04:51;;;;;;;8.18;3.40;;;;;;;14.86;63.67;100226.41;1738134;82;21265;-79
2021/05/24 00:07:58;;;;;;;7.45;3.27;;;;;;;14.89;63.94;100231.52;1738043;82;21281;-79
2021/05/24 00:11:03;;;;;;;6.65;3.37;;;;;;;14.89;63.87;100224.63;1738223;82;21265;-79
2021/05/24 00:14:12;;;;;;;5.10;3.08;;;;;;;14.86;63.56;100232.45;1738135;82;21336;-79
2021/05/24 00:17:18;;;;;;;7.10;3.45;;;;;;;14.85;62.81;100232.13;1736678;82;21162;-79
2021/05/24 00:20:24;;;;;;;6.60;3.08;;;;;;;14.93;62.31;100234.71;1736477;82;21194;-79
2021/05/24 00:23:31;;;;;;;16.30;5.08;;;;;;;14.98;62.67;100231.66;1738085;82;21170;-79
2021/05/24 00:26:36;;;;;;;9.78;4.47;;;;;;;14.97;63.00;100235.47;1738190;82;21337;-79
2021/05/24 00:29:42;;;;;;;9.30;4.47;;;;;;;14.91;63.35;100235.43;1736694;82;21212;-79
2021/05/24 00:32:50;;;;;;;6.97;4.12;;;;;;;14.85;63.49;100241.23;1738210;82;21312;-79
2021/05/24 00:35:55;;;;;;;8.33;3.95;;;;;;;14.80;63.86;100232.75;1736612;82;21742;-80
2021/05/24 00:39:07;;;;;;;6.42;3.77;;;;;;;14.77;64.37;100229.02;1738041;82;21297;-80
2021/05/24 00:42:11;;;;;;;5.97;3.27;;;;;;;14.80;64.34;100224.48;1738313;82;21273;-80
2021/05/24 00:45:17;;;;;;;8.83;3.55;;;;;;;14.81;64.18;100231.69;1738229;82;21273;-80
2021/05/24 00:48:23;;;;;;;7.58;3.80;;;;;;;14.81;64.09;100239.95;1738197;82;21308;-80
2021/05/24 00:51:28;;;;;;;8.93;3.92;;;;;;;14.79;63.90;100240.70;1738237;82;21839;-80
2021/05/24 00:54:33;;;;;;;11.38;3.22;;;;;;;14.76;63.77;100235.05;1738029;82;21854;-80
2021/05/24 00:57:38;;;;;;;7.10;3.72;;;;;;;14.76;63.67;100238.34;1738161;82;21202;-80
2021/05/24 01:00:46;;;;;;;11.55;4.15;;;;;;;14.75;63.78;100232.52;1738208;82;21332;-80
2021/05/24 01:03:54;;;;;;;13.60;3.55;;;;;;;14.72;64.25;100235.14;1738154;82;21229;-80
2021/05/24 01:07:02;;;;;;;9.45;4.00;;;;;;;14.70;64.55;100233.66;1736590;82;21169;-79
2021/05/24 01:10:06;;;;;;;9.65;3.55;;;;;;;14.65;64.67;100225.17;1741375;82;21292;-79
2021/05/24 01:13:14;;;;;;;9.53;4.00;;;;;;;14.62;64.74;100222.29;1751386;82;21296;-80
2021/05/24 01:16:18;;;;;;;10.80;3.60;;;;;;;14.63;64.80;100223.13;1751412;82;21276;-79
2021/05/24 01:19:24;;;;;;;6.35;3.55;;;;;;;14.62;64.93;100215.41;1751354;82;21335;-79
2021/05/24 01:22:28;;;;;;;9.80;4.10;;;;;;;14.61;65.00;100218.38;1751377;82;21782;-79
2021/05/24 01:25:34;;;;;;;12.93;4.40;;;;;;;14.60;64.97;100212.55;1751200;82;21196;-79
2021/05/24 01:28:39;;;;;;;10.28;4.17;;;;;;;14.60;64.99;100207.89;1751488;82;21308;-80
2021/05/24 01:31:43;;;;;;;8.48;4.53;;;;;;;14.61;64.80;100205.98;1751428;82;21331;-80
2021/05/24 01:34:49;;;;;;;6.50;3.55;;;;;;;14.61;64.72;100200.48;1751434;82;21272;-80
2021/05/24 01:37:54;;;;;;;11.60;3.98;;;;;;;14.60;64.58;100201.02;1751401;82;21311;-80
2021/05/24 01:40:59;;;;;;;9.20;4.25;;;;;;;14.61;64.02;100197.73;1751179;82;21217;-80
2021/05/24 01:44:04;;;;;;;7.87;3.90;;;;;;;14.64;63.59;100191.30;1751361;82;21197;-80
2021/05/24 01:47:11;;;;;;;9.38;4.47;;;;;;;14.68;63.48;100200.84;1751371;82;21830;-80
2021/05/24 01:50:21;;;;;;;13.93;4.10;;;;;;;14.72;63.44;100204.02;1751445;82;21280;-80
2021/05/24 01:53:27;;;;;;;7.72;4.08;;;;;;;14.72;63.63;100206.23;1751372;82;21221;-79
2021/05/24 01:56:32;;;;;;;8.63;4.15;;;;;;;14.69;64.05;100201.16;1751159;82;21304;-79
2021/05/24 01:59:37;;;;;;;6.17;3.65;;;;;;;14.62;64.35;100199.42;1751327;82;21177;-79
2021/05/24 02:02:42;;;;;;;18.27;3.80;;;;;;;14.56;64.62;100207.98;1751362;82;21233;-79
2021/05/24 02:05:48;;;;;;;11.43;4.03;;;;;;;14.47;64.93;100205.89;1751434;82;21162;-79
2021/05/24 02:08:56;;;;;;;9.40;3.80;;;;;;;14.39;65.12;100203.30;1751364;82;21319;-80
2021/05/24 02:12:03;;;;;;;8.88;3.98;;;;;;;14.33;65.27;100201.38;1749333;81;21204;-79
2021/05/24 02:15:08;;;;;;;9.60;3.70;;;;;;;14.30;65.34;100199.02;1751410;82;21814;-79
2021/05/24 02:18:14;;;;;;;9.43;4.25;;;;;;;14.26;65.48;100195.84;1751401;82;21197;-79
2021/05/24 02:21:20;;;;;;;10.08;3.83;;;;;;;14.23;65.79;100203.12;1751472;82;21880;-79
2021/05/24 02:24:26;;;;;;;9.10;4.58;;;;;;;14.20;65.87;100209.55;1751346;82;21201;-79
2021/05/24 02:27:31;;;;;;;12.20;4.35;;;;;;;14.18;66.00;100206.16;1751351;82;21268;-80
2021/05/24 02:30:36;;;;;;;8.90;4.03;;;;;;;14.17;66.32;100208.06;1749818;81;21168;-80
2021/05/24 02:33:42;;;;;;;13.50;4.05;;;;;;;14.17;66.54;100211.34;1751376;82;21355;-79
2021/05/24 02:36:48;;;;;;;9.78;4.30;;;;;;;14.12;66.69;100210.58;1751382;82;21711;-79
2021/05/24 02:39:53;;;;;;;9.23;4.47;;;;;;;14.09;66.92;100214.24;1751406;82;21281;-79
2021/05/24 02:42:58;;;;;;;9.25;4.47;;;;;;;14.10;66.79;100218.69;1750971;82;21304;-79
2021/05/24 02:46:04;;;;;;;9.78;4.85;;;;;;;14.13;66.76;100225.17;1751330;82;21699;-79
2021/05/24 02:49:10;;;;;;;9.08;3.62;;;;;;;14.15;66.93;100216.18;1751478;82;21785;-79
2021/05/24 02:52:15;;;;;;;8.28;4.05;;;;;;;14.19;67.14;100214.73;1751344;82;21272;-79
2021/05/24 02:55:22;;;;;;;13.93;5.10;;;;;;;14.25;67.29;100212.53;1751424;82;21197;-79
2021/05/24 02:58:27;;;;;;;11.70;5.15;;;;;;;14.28;67.36;100210.23;1751365;82;21217;-79
2021/05/24 03:01:33;;;;;;;13.72;6.17;;;;;;;14.32;67.16;100202.43;1751208;82;21233;-79
2021/05/24 03:04:38;;;;;;;17.52;7.08;;;;;;;14.37;67.25;100204.57;1751305;82;21300;-80
2021/05/24 03:07:42;;;;;;;27.58;7.37;;;;;;;14.42;67.40;100205.66;1751394;82;21165;-80
2021/05/24 03:10:48;;;;;;;12.93;6.87;;;;;;;14.50;67.65;100218.44;1751358;82;21197;-80
2021/05/24 03:13:54;;;;;;;11.48;6.72;;;;;;;14.57;67.92;100214.64;1769038;80;21177;-80
2021/05/24 03:17:01;;;;;;;17.62;7.17;;;;;;;14.63;68.16;100211.59;1768232;80;21154;-79
2021/05/24 03:20:06;;;;;;;19.25;7.05;;;;;;;14.71;68.33;100205.07;1764813;81;21866;-79
2021/05/24 03:23:11;;;;;;;18.20;6.37;;;;;;;14.80;68.65;100203.84;1743095;81;21324;-80
2021/05/24 03:26:17;;;;;;;17.80;6.50;;;;;;;14.88;69.61;100205.04;1739717;82;21334;-79
2021/05/24 03:29:22;;;;;;;11.85;5.83;;;;;;;14.97;71.90;100209.84;1739687;82;21296;-79
2021/05/24 03:32:27;;;;;;;16.10;6.87;;;;;;;15.09;72.87;100213.66;1739716;82;21281;-79
2021/05/24 03:35:31;;;;;;;12.65;6.45;;;;;;;15.24;73.01;100217.11;1739702;82;21161;-79
2021/05/24 03:38:38;;;;;;;18.23;6.78;;;;;;;15.51;72.81;100221.27;1768586;79;21331;-79
2021/05/24 03:41:44;;;;;;;8.68;4.87;;;;;;;15.89;71.94;100228.41;1786511;79;21299;-79
2021/05/24 03:44:51;;;;;;;15.23;6.12;;;;;;;16.36;70.78;100225.05;1754931;82;21826;-80
2021/05/24 03:47:57;;;;;;;18.23;6.90;;;;;;;16.88;69.38;100230.09;1742010;81;21843;-80
2021/05/24 03:51:03;;;;;;;8.98;5.10;;;;;;;17.41;67.36;100240.00;1738179;82;21220;-80
2021/05/24 03:54:09;;;;;;;13.83;6.58;;;;;;;17.83;66.25;100243.47;1738622;82;21342;-80
2021/05/24 03:57:16;;;;;;;12.07;6.83;;;;;;;18.03;65.38;100236.38;1754786;81;21165;-80
2021/05/24 04:00:23;;;;;;;18.98;7.28;;;;;;;18.23;65.39;100240.87;1770249;81;21681;-80
2021/05/24 04:03:28;;;;;;;24.27;8.88;;;;;;;18.38;65.28;100249.11;1772511;79;21209;-80
2021/05/24 04:06:35;;;;;;;25.45;11.22;;;;;;;18.47;64.62;100251.05;1725626;82;21148;-80
2021/05/24 04:09:42;;;;;;;32.00;14.00;;;;;;;18.62;64.75;100253.44;1768055;81;21180;-80
2021/05/24 04:12:48;;;;;;;31.70;15.00;;;;;;;18.75;64.08;100258.86;1764312;81;21281;-80
2021/05/24 04:15:55;;;;;;;35.45;15.15;;;;;;;18.80;63.86;100250.70;1754896;81;21789;-80
2021/05/24 04:19:06;;;;;;;37.42;13.20;;;;;;;18.78;63.81;100246.48;1760671;79;21256;-80
2021/05/24 04:22:09;;;;;;;37.45;14.10;;;;;;;18.65;63.98;100241.36;1770290;81;21798;-80
2021/05/24 04:25:15;;;;;;;37.45;16.27;;;;;;;18.48;64.55;100242.20;1753103;81;21857;-80
2021/05/24 04:28:21;;;;;;;34.92;15.35;;;;;;;18.29;65.44;100241.33;1745137;81;21817;-80
2021/05/24 04:31:27;;;;;;;36.53;15.10;;;;;;;18.19;66.53;100245.16;1749039;81;21802;-80
2021/05/24 04:34:32;;;;;;;41.98;15.70;;;;;;;18.18;67.41;100247.09;1750136;81;21265;-80
2021/05/24 04:37:38;;;;;;;44.45;18.05;;;;;;;18.24;67.82;100242.02;1748944;81;21291;-80
2021/05/24 04:40:46;;;;;;;45.30;19.45;;;;;;;18.31;66.95;100240.05;1754116;79;21166;-80
2021/05/24 04:43:57;;;;;;;47.73;19.80;;;;;;;18.41;66.89;100224.28;1750824;81;21309;-80
2021/05/24 04:46:59;;;;;;;38.33;17.55;;;;;;;18.54;66.93;100224.68;1753899;79;21555;-80
2021/05/24 04:50:07;;;;;;;32.98;15.45;;;;;;;18.69;67.18;100229.32;1746424;81;22146;-79
2021/05/24 04:53:14;;;;;;;30.20;13.40;;;;;;;18.79;67.33;100226.00;1746243;79;21275;-78
2021/05/24 04:56:20;;;;;;;33.75;12.55;;;;;;;18.83;68.20;100229.47;1751207;81;21142;-78
2021/05/24 04:59:27;;;;;;;26.42;11.50;;;;;;;18.88;68.84;100219.07;1752699;79;21843;-78
2021/05/24 05:02:33;;;;;;;22.37;9.40;;;;;;;19.03;69.58;100220.88;1744618;81;21268;-80
2021/05/24 05:05:40;;;;;;;14.10;8.23;;;;;;;19.18;69.83;100225.16;1749778;79;21642;-80
2021/05/24 05:08:46;;;;;;;21.37;8.30;;;;;;;19.36;69.46;100225.12;1750766;79;21284;-79
2021/05/24 05:11:53;;;;;;;17.60;8.03;;;;;;;19.53;68.84;100242.78;1710291;81;21287;-79
2021/05/24 05:15:00;;;;;;;28.70;7.72;;;;;;;19.70;68.36;100257.39;1689016;83;21919;-78
2021/05/24 05:18:07;;;;;;;18.10;7.83;;;;;;;19.82;67.78;100266.05;1750793;79;21283;-79
2021/05/24 05:21:13;;;;;;;14.83;7.97;;;;;;;19.96;67.44;100275.01;1754630;79;21809;-79
2021/05/24 05:24:18;;;;;;;18.37;8.43;;;;;;;20.03;67.05;100281.83;1756100;79;21885;-79
2021/05/24 05:27:23;;;;;;;19.30;8.30;;;;;;;20.06;66.81;100287.75;1755754;79;21173;-80
2021/05/24 05:30:31;;;;;;;16.17;8.20;;;;;;;20.04;66.20;100296.88;1753669;79;22122;-80
2021/05/24 05:33:36;;;;;;;13.85;7.60;;;;;;;19.97;66.27;100304.45;1754768;79;21311;-80
2021/05/24 05:36:43;;;;;;;15.88;8.33;;;;;;;19.83;66.68;100306.59;1753519;79;21306;-80
2021/05/24 05:39:54;;;;;;;17.57;8.33;;;;;;;19.73;67.30;100309.64;1750741;79;21268;-78
2021/05/24 05:43:02;;;;;;;21.05;8.38;;;;;;;19.65;67.78;100307.49;1752465;79;21604;-80
2021/05/24 05:46:09;;;;;;;23.98;8.08;;;;;;;19.59;68.33;100302.86;1750222;79;21188;-81
2021/05/24 05:49:18;;;;;;;20.30;8.60;;;;;;;19.58;68.70;100303.95;1749847;80;21216;-80
2021/05/24 05:52:29;;;;;;;27.58;10.65;;;;;;;19.56;68.82;100296.39;1752603;80;21302;-81
2021/05/24 05:55:41;;;;;;;49.08;20.10;;;;;;;19.48;69.11;100289.81;1748325;80;21237;-80
2021/05/24 05:58:55;;;;;;;86.28;33.18;;;;;;;19.37;69.63;100286.42;1735699;80;21161;-80
2021/05/24 06:02:01;;;;;;;102.50;41.37;;;;;;;19.32;70.21;100289.06;1751136;80;21871;-81
2021/05/24 06:05:11;;;;;;;79.10;27.73;;;;;;;19.28;70.65;100294.77;1752833;79;21891;-79
2021/05/24 06:08:16;;;;;;;18.10;9.18;;;;;;;19.32;71.16;100302.92;1751939;79;21303;-81
2021/05/24 06:11:22;;;;;;;14.07;6.60;;;;;;;19.32;71.95;100312.09;1752871;80;21288;-81
2021/05/24 06:14:29;;;;;;;8.25;4.33;;;;;;;19.37;72.35;100324.70;1750854;79;21299;-82
2021/05/24 06:17:35;;;;;;;12.60;4.90;;;;;;;19.43;72.58;100319.30;1750345;80;21331;-82
2021/05/24 06:20:43;;;;;;;8.83;4.05;;;;;;;19.49;72.14;100331.72;1750959;79;21146;-81
2021/05/24 06:23:54;;;;;;;16.00;4.75;;;;;;;19.52;71.86;100315.13;1753108;80;21350;-82
2021/05/24 06:27:11;;;;;;;11.77;5.40;;;;;;;19.52;71.61;100315.97;1753045;79;21390;-83
2021/05/24 06:30:21;;;;;;;12.35;4.53;;;;;;;19.51;71.53;100305.12;1751981;79;22659;-84
2021/05/24 06:33:32;;;;;;;11.57;3.87;;;;;;;19.54;71.52;100311.05;1753029;79;21587;-82
2021/05/24 06:36:40;;;;;;;9.58;3.67;;;;;;;19.54;71.05;100319.91;1756002;79;21712;-81
2021/05/24 06:39:49;;;;;;;12.40;3.65;;;;;;;19.52;70.28;100302.09;1750449;79;21652;-82
2021/05/24 06:43:04;;;;;;;12.23;3.72;;;;;;;19.51;69.89;100307.34;1752091;79;21853;-83
2021/05/24 06:46:16;;;;;;;7.35;3.85;;;;;;;19.49;69.96;100301.75;1708031;82;21515;-80
2021/05/24 06:49:28;;;;;;;5.42;3.33;;;;;;;19.48;70.42;100298.64;1700560;82;21205;-80
2021/05/24 06:52:41;;;;;;;18.20;4.30;;;;;;;19.51;70.47;100303.73;1699827;82;21356;-80
2021/05/24 06:55:48;;;;;;;12.65;3.95;;;;;;;19.54;70.32;100295.80;1712565;81;21236;-81
2021/05/24 06:58:52;;;;;;;14.98;4.20;;;;;;;19.61;70.33;100303.49;1704472;82;21576;-81
2021/05/24 07:02:00;;;;;;;8.85;4.00;;;;;;;19.71;69.99;100302.08;1703920;82;21224;-81
2021/05/24 07:05:07;;;;;;;8.68;3.58;;;;;;;19.78;69.36;100302.84;1702329;82;21796;-82
2021/05/24 07:08:13;;;;;;;12.07;3.42;;;;;;;19.84;68.72;100307.44;1705623;83;21178;-82
2021/05/24 07:11:19;;;;;;;10.63;3.45;;;;;;;19.97;68.22;100312.78;1686227;82;21253;-83
2021/05/24 07:14:25;;;;;;;9.63;3.40;;;;;;;20.02;67.72;100307.91;1695436;82;21917;-82
2021/05/24 07:17:30;;;;;;;11.40;3.60;;;;;;;20.08;66.94;100299.45;1705825;81;21969;-82
2021/05/24 07:20:38;;;;;;;6.58;3.95;;;;;;;20.11;66.79;100307.31;1666508;83;22175;-82
2021/05/24 07:23:44;;;;;;;8.15;3.47;;;;;;;20.13;66.83;100302.35;1663868;83;21686;-82
2021/05/24 07:26:54;;;;;;;16.25;3.72;;;;;;;20.12;67.20;100310.94;1663922;83;21916;-82
2021/05/24 07:30:00;;;;;;;11.63;3.85;;;;;;;20.10;68.11;100314.50;1667607;83;21808;-82
2021/05/24 07:33:06;;;;;;;13.03;3.95;;;;;;;20.13;69.42;100316.23;1664985;83;21343;-83
2021/05/24 07:36:31;;;;;;;9.60;3.60;;;;;;;20.19;69.67;100315.85;1663907;85;21315;-84
2021/05/24 07:39:34;;;;;;;7.42;4.22;;;;;;;20.29;69.92;100309.16;1666731;83;21437;-82
2021/05/24 07:42:38;;;;;;;13.43;4.53;;;;;;;20.49;69.49;100326.89;1663756;83;21224;-80
2021/05/24 07:45:44;;;;;;;10.23;3.50;;;;;;;20.64;68.84;100327.23;1663174;83;21631;-79
2021/05/24 07:48:50;;;;;;;12.68;4.62;;;;;;;20.73;68.86;100327.72;1659472;83;21917;-84
2021/05/24 07:51:56;;;;;;;10.53;4.25;;;;;;;20.79;68.41;100328.68;1664717;84;21791;-83
2021/05/24 07:55:02;;;;;;;8.35;4.10;;;;;;;20.79;68.37;100325.35;1664933;83;21323;-83
2021/05/24 07:58:08;;;;;;;6.95;3.42;;;;;;;20.75;69.04;100328.34;1665922;83;21347;-83
2021/05/24 08:01:14;;;;;;;12.47;3.30;;;;;;;20.73;67.94;100336.61;1665072;83;22190;-81
2021/05/24 08:04:23;;;;;;;6.03;3.10;;;;;;;20.66;66.13;100343.69;1665871;83;21539;-80
2021/05/24 08:07:28;;;;;;;6.03;3.27;;;;;;;20.53;66.58;100355.04;1665785;83;21869;-79
2021/05/24 08:10:34;;;;;;;10.58;3.50;;;;;;;20.42;65.35;100360.86;1665430;85;21622;-81
2021/05/24 08:13:43;;;;;;;6.65;2.92;;;;;;;20.32;65.72;100355.03;1665765;85;21327;-79
2021/05/24 08:16:54;;;;;;;6.83;3.25;;;;;;;20.28;65.74;100348.25;1662649;83;21218;-82
2021/05/24 08:20:00;;;;;;;5.65;2.75;;;;;;;20.16;64.24;100344.92;1678434;83;21212;-83
2021/05/24 08:23:07;;;;;;;6.70;2.95;;;;;;;20.07;63.49;100346.91;1699048;82;21621;-83
2021/05/24 08:26:12;;;;;;;5.45;2.92;;;;;;;20.04;62.39;100341.30;1696731;82;21508;-82
2021/05/24 08:29:20;;;;;;;6.87;2.50;;;;;;;20.02;62.55;100337.89;1744530;79;21187;-83
2021/05/24 08:32:35;;;;;;;15.95;3.25;;;;;;;19.90;60.78;100339.27;1743486;81;21284;-82
2021/05/24 08:35:34;;;;;;;4.40;2.67;;;;;;;19.79;60.70;100335.89;1746205;79;21304;-82
2021/05/24 08:38:41;;;;;;;4.75;2.22;;;;;;;19.73;61.86;100336.00;1746425;79;21288;-81
2021/05/24 08:41:51;;;;;;;3.62;2.08;;;;;;;19.72;62.20;100332.94;1742213;79;21778;-85
2021/05/24 08:44:58;;;;;;;8.05;2.40;;;;;;;19.69;62.08;100323.68;1743371;81;21193;-83
2021/05/24 08:48:03;;;;;;;5.40;2.50;;;;;;;19.72;61.99;100323.22;1742589;79;21832;-82
2021/05/24 08:51:08;;;;;;;6.20;1.90;;;;;;;19.79;62.40;100323.41;1744264;79;21296;-81
2021/05/24 08:54:16;;;;;;;6.55;2.55;;;;;;;19.92;61.84;100319.59;1742599;79;21810;-85
2021/05/24 08:57:26;;;;;;;7.22;2.10;;;;;;;20.07;61.73;100317.75;1744180;81;21307;-86
2021/05/24 09:00:32;;;;;;;5.00;1.98;;;;;;;20.21;62.48;100326.70;1741293;79;21473;-78
2021/05/24 09:03:46;;;;;;;2.72;2.00;;;;;;;20.31;63.02;100327.80;1741607;81;21661;-78
2021/05/24 09:06:52;;;;;;;3.55;1.87;;;;;;;20.35;62.89;100322.07;1742878;81;21494;-78
2021/05/24 09:10:10;;;;;;;4.45;1.80;;;;;;;20.34;61.76;100322.32;1743791;79;21182;-77
2021/05/24 09:13:24;;;;;;;3.47;1.80;;;;;;;20.30;60.65;100330.83;1744032;79;21291;-78
2021/05/24 09:16:37;;;;;;;2.98;1.80;;;;;;;20.20;60.02;100347.23;1744153;81;21635;-79
2021/05/24 09:20:10;;;;;;;1.80;1.50;;;;;;;19.99;59.67;100350.02;1740825;81;21197;-79
2021/05/24 09:23:36;;;;;;;1.52;1.20;;;;;;;19.85;61.61;100353.53;1744868;81;21292;-80
2021/05/24 09:26:42;;;;;;;2.02;1.35;;;;;;;19.77;61.54;100370.53;1745686;79;21272;-80
2021/05/24 09:29:53;;;;;;;3.15;1.70;;;;;;;19.61;61.43;100384.50;1735858;80;21185;-79
2021/05/24 09:32:58;;;;;;;1.98;1.20;;;;;;;19.42;63.05;100389.19;1703601;82;21471;-79
2021/05/24 09:36:04;;;;;;;2.55;1.50;;;;;;;19.23;62.75;100391.67;1743629;81;21186;-81
2021/05/24 09:39:14;;;;;;;4.40;1.50;;;;;;;18.94;62.26;100378.88;1744612;81;22051;-81
2021/05/24 09:42:21;;;;;;;3.87;1.47;;;;;;;18.68;62.25;100387.41;1744536;81;21646;-81
2021/05/24 09:45:28;;;;;;;3.35;2.00;;;;;;;18.41;62.87;100402.05;1746232;81;21162;-81
2021/05/24 09:48:39;;;;;;;1.82;1.50;;;;;;;18.16;63.87;100406.16;1743873;79;21316;-81
2021/05/24 09:51:44;;;;;;;4.28;1.67;;;;;;;17.90;65.61;100412.19;1749467;81;21150;-80
2021/05/24 09:54:50;;;;;;;5.28;2.15;;;;;;;17.69;67.55;100409.20;1748162;81;21233;-79
2021/05/24 09:58:12;;;;;;;8.35;2.25;;;;;;;17.49;69.21;100398.20;1749859;79;21304;-79
2021/05/24 10:01:29;;;;;;;2.98;2.08;;;;;;;17.40;70.87;100398.14;1746822;79;21269;-79
2021/05/24 10:04:32;;;;;;;4.05;2.40;;;;;;;17.36;71.83;100381.16;1747489;81;21685;-79
2021/05/24 10:07:39;;;;;;;4.30;2.55;;;;;;;17.24;72.68;100387.58;1748189;79;21182;-79
2021/05/24 10:10:45;;;;;;;4.30;2.50;;;;;;;17.09;73.30;100357.45;1744360;81;22305;-79
2021/05/24 10:13:52;;;;;;;8.83;2.50;;;;;;;16.98;73.84;100350.66;1743879;79;22298;-78
2021/05/24 10:17:03;;;;;;;4.37;2.60;;;;;;;16.76;74.33;100345.11;1737192;81;21181;-79
2021/05/24 10:20:08;;;;;;;6.37;2.50;;;;;;;16.53;75.27;100324.30;1745715;81;21751;-79
2021/05/24 10:23:15;;;;;;;2.95;2.30;;;;;;;16.31;76.54;100298.83;1748204;81;21285;-79
2021/05/24 10:26:22;;;;;;;8.53;2.62;;;;;;;16.14;77.98;100260.84;1745667;81;21649;-79
2021/05/24 10:29:29;;;;;;;3.47;2.30;;;;;;;15.90;79.31;100208.03;1731727;79;21233;-79
2021/05/24 10:32:34;;;;;;;3.27;2.05;;;;;;;15.75;80.64;100204.13;1744772;81;21270;-80
2021/05/24 10:35:45;;;;;;;5.90;2.80;;;;;;;15.68;81.82;100183.14;1746648;79;21288;-80
2021/05/24 10:38:51;;;;;;;3.83;2.70;;;;;;;15.63;82.47;100119.50;1745339;81;21347;-80
2021/05/24 10:42:11;;;;;;;3.70;2.35;;;;;;;15.57;83.36;100157.88;1745668;81;21865;-80
2021/05/24 10:45:27;;;;;;;4.65;2.70;;;;;;;15.59;83.17;100171.45;1749084;81;21157;-79
2021/05/24 10:48:31;;;;;;;3.98;2.80;;;;;;;15.70;83.73;100208.05;1746278;81;21795;-79
2021/05/24 10:52:01;;;;;;;3.67;2.50;;;;;;;15.89;84.09;100206.34;1723873;81;21519;-80
2021/05/24 10:55:08;;;;;;;10.60;2.80;;;;;;;16.15;84.47;100198.58;1751772;81;21726;-80
2021/05/24 10:58:21;;;;;;;4.85;2.22;;;;;;;16.54;84.32;100193.45;1745349;81;21268;-80
2021/05/24 11:01:28;;;;;;;4.53;2.30;;;;;;;16.89;83.02;100180.72;1744288;81;21877;-80
2021/05/24 11:04:42;;;;;;;10.38;2.12;;;;;;;17.26;82.05;100191.94;1748075;81;21500;-80
2021/05/24 11:07:52;;;;;;;3.55;2.10;;;;;;;17.67;81.11;100191.42;1726626;81;21181;-80
2021/05/24 11:10:57;;;;;;;3.00;1.87;;;;;;;18.09;78.87;100182.03;1739862;81;21245;-80
2021/05/24 11:14:15;;;;;;;5.90;1.85;;;;;;;18.36;76.65;100180.67;1748037;81;21178;-81
2021/05/24 11:17:20;;;;;;;8.28;1.70;;;;;;;18.65;75.69;100187.34;1754687;81;21312;-81
2021/05/24 11:20:50;;;;;;;3.72;1.50;;;;;;;19.02;74.21;100202.56;1745485;79;21632;-81
2021/05/24 11:24:21;;;;;;;3.02;1.52;;;;;;;19.37;72.78;100194.91;1752189;79;21332;-81
2021/05/24 11:27:20;;;;;;;1.55;1.20;;;;;;;19.59;69.85;100193.28;1750410;79;21260;-82
2021/05/24 11:30:35;;;;;;;2.92;1.20;;;;;;;19.81;69.35;100188.59;1745730;79;21300;-82
2021/05/24 11:33:48;;;;;;;1.70;1.17;;;;;;;20.07;69.43;100199.20;1749077;81;21542;-81
2021/05/24 11:36:55;;;;;;;;;;;;;;;20.27;67.85;100197.98;1748414;81;21154;-82
2021/05/24 11:40:01;;;;;;;5.70;1.25;;;;;;;20.47;67.11;100198.50;1751255;81;20923;-82
2021/05/24 11:43:17;;;;;;;1.22;1.10;;;;;;;20.58;67.10;100192.61;1753090;81;21825;-82
2021/05/24 11:46:22;;;;;;;1.62;1.12;;;;;;;20.65;65.24;100190.52;1749129;79;21880;-82
2021/05/24 11:49:45;;;;;;;1.10;0.80;;;;;;;20.57;65.38;100190.38;1752882;81;21162;-82
2021/05/24 11:52:52;;;;;;;3.08;1.22;;;;;;;20.50;65.24;100185.48;1751047;81;21165;-82
2021/05/24 11:55:56;;;;;;;1.27;1.07;;;;;;;20.43;64.55;100173.10;1753320;81;21896;-82
2021/05/24 11:59:07;;;;;;;2.27;0.93;;;;;;;20.40;64.47;100166.63;1757763;79;21186;-82
2021/05/24 12:02:13;;;;;;;;;;;;;;;20.49;64.47;100156.02;1751591;81;21858;-82
2021/05/24 12:05:25;;;;;;;1.30;1.20;;;;;;;20.57;63.76;100142.30;1745189;79;20280;-82
2021/05/24 12:08:33;;;;;;;2.47;1.65;;;;;;;20.52;63.20;100139.42;1744070;81;21208;-82
2021/05/24 12:11:41;;;;;;;3.85;1.90;;;;;;;20.56;63.56;100145.63;1752202;81;21268;-81
2021/05/24 12:14:50;;;;;;;4.00;1.82;;;;;;;20.59;63.09;100126.22;1736873;80;21687;-81
2021/05/24 12:18:00;;;;;;;3.70;1.82;;;;;;;20.60;63.64;100120.95;1752366;81;21308;-82
2021/05/24 12:21:04;;;;;;;3.27;1.60;;;;;;;20.48;62.20;100112.67;1749913;81;21134;-81
2021/05/24 12:24:16;;;;;;;2.70;1.55;;;;;;;20.32;62.05;100113.39;1751637;81;21150;-81
2021/05/24 12:27:25;;;;;;;4.45;1.85;;;;;;;20.26;63.08;100107.44;1762218;79;21633;-82
2021/05/24 12:30:44;;;;;;;2.95;1.50;;;;;;;20.25;61.82;100107.14;1744052;80;21310;-81
2021/05/24 12:33:52;;;;;;;1.75;1.12;;;;;;;20.24;62.36;100101.30;1762761;80;21284;-82
2021/05/24 12:36:59;;;;;;;3.25;1.67;;;;;;;20.22;60.79;100099.29;1760340;79;21228;-81
2021/05/24 12:40:05;;;;;;;4.15;1.17;;;;;;;20.21;60.47;100106.78;1765232;80;21196;-82
2021/05/24 12:43:04;;;;;;;2.22;1.50;;;;;;;20.11;59.62;100096.84;1761168;80;21279;-81
2021/05/24 12:46:11;;;;;;;4.17;1.40;;;;;;;20.03;61.03;100091.66;1762599;80;21350;-81
2021/05/24 12:49:21;;;;;;;3.62;1.57;;;;;;;19.97;58.33;100094.87;1759828;80;21267;-81
2021/05/24 12:52:26;;;;;;;3.65;1.82;;;;;;;19.85;59.30;100091.25;1763525;79;21283;-81
2021/05/24 12:55:33;;;;;;;3.72;1.62;;;;;;;19.78;61.45;100083.61;1762017;80;21748;-82
2021/05/24 12:58:44;;;;;;;3.92;1.30;;;;;;;19.69;60.37;100093.38;1715028;80;21291;-81
2021/05/24 13:01:50;;;;;;;1.42;1.32;;;;;;;19.65;61.25;100088.30;1763458;80;21844;-81
2021/05/24 13:04:56;;;;;;;4.60;1.85;;;;;;;19.73;62.52;100096.82;1761703;80;21284;-81
2021/05/24 13:08:04;;;;;;;7.45;2.40;;;;;;;19.91;62.65;100099.47;1752647;80;21507;-81
2021/05/24 13:11:12;;;;;;;4.78;1.75;;;;;;;20.22;62.90;100109.01;1759985;80;21802;-81
2021/05/24 13:14:18;;;;;;;2.52;1.00;;;;;;;20.48;62.52;100108.50;1751203;79;21767;-82
2021/05/24 13:17:50;;;;;;;2.47;1.40;;;;;;;20.58;59.41;100104.54;1763854;80;21264;-81
2021/05/24 13:20:52;;;;;;;5.62;1.80;;;;;;;20.64;59.51;100113.27;1759712;80;21275;-83
2021/05/24 13:27:41;;;;;;;2.02;1.60;;;;;;;20.77;57.93;100108.52;1757719;80;21770;-80
2021/05/24 13:30:36;;;;;;;1.52;1.02;;;;;;;20.83;58.14;100116.69;1760911;80;22109;-82
2021/05/24 13:33:47;;;;;;;2.42;1.10;;;;;;;20.87;57.40;100111.48;1757340;79;21303;-81
2021/05/24 13:36:53;;;;;;;1.75;1.40;;;;;;;20.86;57.42;100105.64;1763370;80;21860;-81
2021/05/24 13:40:06;;;;;;;4.05;1.55;;;;;;;20.82;57.42;100096.95;1777006;80;21790;-81
2021/05/24 13:43:12;;;;;;;3.75;1.70;;;;;;;20.75;57.66;100098.17;1770776;80;21276;-81
2021/05/24 13:46:17;;;;;;;2.00;1.52;;;;;;;20.64;58.33;100092.42;1772104;80;21834;-81
2021/05/24 13:49:26;;;;;;;3.42;1.72;;;;;;;20.58;59.56;100099.53;1752024;82;21323;-81
2021/05/24 13:52:30;;;;;;;2.92;1.60;;;;;;;20.54;59.21;100096.94;1751505;81;21205;-81
2021/05/24 13:55:36;;;;;;;2.02;1.35;;;;;;;20.45;59.88;100102.01;1751332;82;21287;-80
2021/05/24 13:58:40;;;;;;;4.60;1.82;;;;;;;20.34;60.16;100102.34;1751195;82;21873;-81
2021/05/24 14:01:45;;;;;;;2.08;1.70;;;;;;;20.19;60.60;100089.53;1751225;82;21918;-81
2021/05/24 14:04:49;;;;;;;6.25;1.98;;;;;;;20.03;61.50;100081.39;1751293;82;21786;-81
2021/05/24 14:07:54;;;;;;;6.42;2.33;;;;;;;19.92;61.93;100087.82;1751533;81;21169;-81
2021/05/24 14:10:59;;;;;;;4.22;2.10;;;;;;;19.79;62.85;100096.39;1752604;82;21259;-81
2021/05/24 14:14:07;;;;;;;10.20;2.22;;;;;;;19.66;63.53;100103.86;1752514;82;21354;-81
2021/05/24 14:17:13;;;;;;;7.42;2.55;;;;;;;19.58;63.50;100105.59;1752768;82;21145;-81
2021/05/24 14:20:19;;;;;;;4.05;2.62;;;;;;;19.51;63.52;100104.85;1758767;80;21264;-81
2021/05/24 14:23:25;;;;;;;5.28;2.70;;;;;;;19.43;63.77;100107.97;1783698;80;21162;-81
2021/05/24 14:26:30;;;;;;;5.42;2.77;;;;;;;19.34;64.56;100113.05;1783929;80;21267;-81
2021/05/24 14:29:37;;;;;;;7.47;2.85;;;;;;;19.27;65.42;100119.23;1743418;82;21304;-81
2021/05/24 14:32:43;;;;;;;4.47;2.30;;;;;;;19.19;66.30;100117.34;1743264;82;21157;-81